• Join FlightAware (Why Join?)
  • Login
  • US Flag 
03:58AM EDT


 

Airport Tracker/Info


-or-


 

Live Flight TrackerFlight Track Log ✈ RLI811 ✈ 16-Dec-2013 ✈ KCPC - KTMB

Flight Track Log - Related Links

Times and Time Zones

All times are in EST time to prevent confusion due to time zone crossing. See the RLI811 flight status page for this flight to view local times or setup timezone preferences in your user account.

Time Position Orientation Groundspeed Altitude Reporting Facility
EST Latitude Longitude Course Direction KTS MPH feet Rate Location/Type
07:31PM 33.9846 -78.7778 219° Southwest  Level Estimated
07:32PM 33.9517 -78.8213 228° Southwest  Level FlightAware Approximate
07:33PM 33.9189 -78.8648 228° Southwest  Level FlightAware Approximate
07:34PM 33.8860 -78.9083 228° Southwest  Level FlightAware Approximate
07:35PM 33.8531 -78.9518 228° Southwest  Level FlightAware Approximate
07:36PM 33.8202 -78.9952 228° Southwest  Level FlightAware Approximate
07:37PM 33.7873 -79.0386 228° Southwest  Level FlightAware Approximate
07:38PM 33.7543 -79.0820 228° Southwest  Level FlightAware Approximate
07:39PM 33.7214 -79.1253 228° Southwest  Level FlightAware Approximate
07:40PM 33.6884 -79.1686 228° Southwest  Level FlightAware Approximate
07:41PM 33.6554 -79.2118 228° Southwest  Level FlightAware Approximate
07:42PM 33.6224 -79.2551 227° Southwest  Level FlightAware Approximate
07:43PM 33.5894 -79.2982 227° Southwest  Level FlightAware Approximate
07:44PM 33.5410 -79.3057 218° Southwest  Level Estimated
07:45PM 33.5053 -79.3457 223° Southwest  Level FlightAware Approximate
07:46PM 33.4695 -79.3856 223° Southwest  Level FlightAware Approximate
07:47PM 33.4338 -79.4254 223° Southwest  Level FlightAware Approximate
07:48PM 33.3980 -79.4652 223° Southwest  Level FlightAware Approximate
07:49PM 33.3623 -79.5050 223° Southwest  Level FlightAware Approximate
07:50PM 33.3265 -79.5448 223° Southwest  Level FlightAware Approximate
07:51PM 33.2907 -79.5845 223° Southwest  Level FlightAware Approximate
07:52PM 33.2549 -79.6242 223° Southwest  Level FlightAware Approximate
07:53PM 33.2191 -79.6639 223° Southwest  Level FlightAware Approximate
07:54PM 33.1832 -79.7035 223° Southwest  Level FlightAware Approximate
07:55PM 33.1474 -79.7431 223° Southwest  Level FlightAware Approximate
07:56PM 33.1115 -79.7827 223° Southwest  Level FlightAware Approximate
07:57PM 33.0628 -79.7872 208° Southwest  Level Estimated
07:58PM 33.0236 -79.8219 217° Southwest  Level FlightAware Approximate
07:59PM 32.9844 -79.8566 217° Southwest  Level FlightAware Approximate
08:00PM 32.9451 -79.8912 217° Southwest  Level FlightAware Approximate
08:01PM 32.9059 -79.9258 216° Southwest  Level FlightAware Approximate
08:02PM 32.8666 -79.9603 216° Southwest  Level FlightAware Approximate
08:03PM 32.8274 -79.9949 216° Southwest  Level FlightAware Approximate
08:04PM 32.7881 -80.0294 216° Southwest  Level FlightAware Approximate
08:05PM 32.7393 -80.0323 210° Southwest  Level Estimated
08:06PM 32.6992 -80.0653 215° Southwest  Level FlightAware Approximate
08:07PM 32.6590 -80.0983 215° Southwest  Level FlightAware Approximate
08:08PM 32.6188 -80.1312 215° Southwest  Level FlightAware Approximate
08:09PM 32.5786 -80.1641 215° Southwest  Level FlightAware Approximate
08:10PM 32.5384 -80.1970 215° Southwest  Level FlightAware Approximate
08:11PM 32.4982 -80.2298 215° Southwest  Level FlightAware Approximate
08:12PM 32.4580 -80.2627 215° Southwest  Level FlightAware Approximate
08:13PM 32.4178 -80.2954 215° Southwest  Level FlightAware Approximate
08:14PM 32.3775 -80.3282 215° Southwest  Level FlightAware Approximate
08:15PM 32.3287 -80.3290 208° Southwest  Level Estimated
08:16PM 32.2872 -80.3595 212° Southwest  Level FlightAware Approximate
08:17PM 32.2457 -80.3899 212° Southwest  Level FlightAware Approximate
08:18PM 32.2042 -80.4202 212° Southwest  Level FlightAware Approximate
08:19PM 32.1627 -80.4506 212° Southwest  Level FlightAware Approximate
08:20PM 32.1212 -80.4809 212° Southwest  Level FlightAware Approximate
08:21PM 32.0797 -80.5112 212° Southwest  Level FlightAware Approximate
08:22PM 32.0381 -80.5415 212° Southwest  Level FlightAware Approximate
08:23PM 31.9966 -80.5718 212° Southwest  Level FlightAware Approximate
08:24PM 31.9550 -80.6020 212° Southwest  Level FlightAware Approximate
08:24PM 31.7669 -80.7789 212° Southwest 185 213 8,000  Level Jacksonville Center
08:25PM 31.9135 -80.6322 212° Southwest  Level FlightAware Approximate
08:25PM 31.7233 -80.8067 208° Southwest 191 220 8,000  Level Jacksonville Center
08:26PM 31.8719 -80.6623 212° Southwest  Level FlightAware Approximate
08:26PM 31.6864 -80.8319 210° Southwest 186 214 8,000  Level Jacksonville Center
08:27PM 31.8303 -80.6925 212° Southwest  Level FlightAware Approximate
08:27PM 31.6389 -80.8622 208° Southwest 181 208 8,000  Level Jacksonville Center
08:28PM 31.7887 -80.7226 212° Southwest  Level FlightAware Approximate
08:28PM 31.5933 -80.8950 212° Southwest 181 208 8,000  Level Jacksonville Center
08:29PM 31.7472 -80.7527 212° Southwest  Level FlightAware Approximate
08:29PM 31.5458 -80.9228 206° Southwest 183 211 8,000  Level Jacksonville Center
08:30PM 31.5064 -80.9481 209° Southwest 183 211 8,000  Level Jacksonville Center
08:31PM 31.4650 -80.9733 208° Southwest 173 199 8,000  Level Jacksonville Center
08:32PM 31.4156 -81.0083 211° Southwest 181 208 8,000  Level Jacksonville Center
08:33PM 31.3678 -81.0336 204° Southwest 181 208 8,000  Level Jacksonville Center
08:34PM 31.3244 -81.0636 211° Southwest 181 208 8,000  Level Jacksonville Center
08:35PM 31.2853 -81.0889 209° Southwest 181 208 8,000  Level Jacksonville Center
08:36PM 31.2417 -81.1164 208° Southwest 181 208 8,000  Level Jacksonville Center
08:37PM 31.1919 -81.1464 207° Southwest 181 208 8,000  Level Jacksonville Center
08:38PM 31.1400 -81.1547 188° South 191 220 8,000  Level Jacksonville Center
08:39PM 31.0878 -81.1508 176° South 199 229 8,000  Level Jacksonville Center
08:40PM 31.0375 -81.1469 176° South 199 229 8,000  Level Jacksonville Center
08:41PM 30.9853 -81.1381 172° South 199 229 8,000  Level Jacksonville Center
08:41PM 30.9456 -81.1364 178° South 190 219 8,000  Level Jacksonville Center
08:42PM 30.9308 -81.1367 181° South 199 229 8,000  Level Jacksonville Center
08:42PM 30.9017 -81.1372 181° South 188 216 8,000  Level Jacksonville Center
08:43PM 30.8808 -81.1353 175° South 199 229 8,000  Level Jacksonville Center
08:43PM 30.8494 -81.1358 181° South 186 214 8,000  Level Jacksonville Center
08:44PM 30.8306 -81.1386 187° South 193 222 8,000  Level Jacksonville Center
08:44PM 30.7953 -81.1344 174° South 189 217 8,000  Level Jacksonville Center
08:45PM 30.7744 -81.1372 187° South 193 222 8,000  Level Jacksonville Center
08:45PM 30.7408 -81.1378 181° South 191 220 8,000  Level Jacksonville Center
08:46PM 30.7222 -81.1358 175° South 198 228 8,000  Level Jacksonville Center
08:46PM 30.6867 -81.1339 177° South 191 220 8,000  Level Jacksonville Center
08:47PM 30.6719 -81.1342 181° South 192 221 8,000  Level Jacksonville Center
08:47PM 30.6406 -81.1325 177° South 193 222 8,000  Level Jacksonville Center
08:48PM 30.6156 -81.1306 176° South 197 227 8,000  Level Jacksonville Center
08:48PM 30.5864 -81.1311 181° South 194 223 8,000  Level Jacksonville Center
08:49PM 30.5611 -81.1292 176° South 197 227 8,000  Level Jacksonville Center
08:49PM 30.5111 -81.1300 181° South 192 221 8,000  Level Jacksonville Center
08:50PM 30.5092 -81.1300 180° South 197 227 8,000  Level Jacksonville Center
08:50PM 30.4672 -81.1283 178° South 189 217 8,000  Level Jacksonville Center
08:51PM 30.4569 -81.1286 181° South 197 227 8,000  Level Jacksonville Center
08:51PM 30.4214 -81.1317 184° South 191 220 8,000  Level Jacksonville Center
08:52PM 30.3692 -81.1303 179° South 189 217 8,000  Level Jacksonville Center
08:53PM 30.3106 -81.1289 179° South 188 216 8,000  Level Jacksonville Center
08:54PM 30.2564 -81.1250 176° South 189 217 8,000  Level Jacksonville Center
08:55PM 30.2022 -81.1261 181° South 187 215 8,000  Level Jacksonville Center
08:56PM 30.1500 -81.1247 179° South 187 215 8,000  Level Jacksonville Center
08:57PM 30.1081 -81.1231 178° South 189 217 8,000  Level Jacksonville Center
08:58PM 30.0539 -81.1239 181° South 187 215 8,000  Level Jacksonville Center
08:59PM 30.0017 -81.1250 181° South 188 216 8,000  Level Jacksonville Center
09:00PM 29.9642 -81.1233 178° South 187 215 8,000  Level Jacksonville Center
09:01PM 29.9036 -81.1244 181° South 188 216 8,000  Level Jacksonville Center
09:02PM 29.8597 -81.1228 178° South 188 216 8,000  Level Jacksonville Center
09:03PM 29.8033 -81.1214 179° South 187 215 8,000  Level Jacksonville Center
09:04PM 29.7469 -81.1200 179° South 188 216 8,000  Level Jacksonville Center
09:05PM 29.6947 -81.1186 179° South 190 219 8,000  Level Jacksonville Center
09:06PM 29.6444 -81.1169 178° South 190 219 8,000  Level Jacksonville Center
09:07PM 29.5839 -81.1133 177° South 190 219 8,000  Level Jacksonville Center
09:08PM 29.5444 -81.1142 181° South 190 219 8,000  Level Jacksonville Center
09:09PM 29.4900 -81.1128 179° South 190 219 8,000  Level Jacksonville Center
09:10PM 29.4378 -81.1114 179° South 190 219 8,000  Level Jacksonville Center
09:11PM 29.3814 -81.1100 179° South 190 219 8,000  Level Jacksonville Center
09:12PM 29.3375 -81.1108 181° South 189 217 8,000  Level Jacksonville Center
09:14PM 29.2000 -81.0833 170° South 197 227 8,000  Level Orlando TRACON
09:15PM 29.1667 -81.0500 139° Southeast 198 228 8,000  Level Orlando TRACON
09:16PM 29.1167 -81.0333 164° South 197 227 8,000  Level Orlando TRACON
09:17PM 29.0667 -81.0000 150° Southeast 196 226 8,000  Level Orlando TRACON
09:18PM 29.0000 -80.9833 168° South 194 223 8,000  Level Orlando TRACON
09:19PM 28.9500 -80.9667 164° South 192 221 8,000  Level Orlando TRACON
09:20PM 28.9167 -80.9500 156° South 194 223 8,000  Level Orlando TRACON
09:21PM 28.8667 -80.9333 164° South 196 226 8,000  Level Orlando TRACON
09:22PM 28.8000 -80.9000 156° South 196 226 8,000  Level Orlando TRACON
09:23PM 28.7500 -80.8833 164° South 196 226 8,000  Level Orlando TRACON
09:24PM 28.7000 -80.8667 164° South 197 227 8,000  Level Orlando TRACON
09:25PM 28.6500 -80.8500 164° South 196 226 8,000  Level Orlando TRACON
09:26PM 28.6000 -80.8333 164° South 194 223 8,000  Level Orlando TRACON
09:27PM 28.5500 -80.8000 150° Southeast 196 226 8,000  Level Orlando TRACON
09:28PM 28.5000 -80.7833 164° South 198 228 8,000  Level Orlando TRACON
09:29PM 28.4500 -80.7667 164° South 196 226 8,000  Level Orlando TRACON
09:32PM 28.3239 -80.7197 162° South 203 234 8,000  Level Miami Center
09:33PM 28.2722 -80.7014 163° South 203 234 8,000  Level Miami Center
09:34PM 28.2164 -80.6758 158° South 203 234 8,000  Level Miami Center
09:35PM 28.1628 -80.6553 161° South 203 234 8,000  Level Miami Center
09:36PM 28.1111 -80.6347 161° South 203 234 8,000  Level Miami Center
09:37PM 28.0633 -80.6261 171° South 203 234 8,000  Level Miami Center
09:38PM 28.0117 -80.6125 167° South 197 227 8,000  Level Miami Center
09:39PM 27.9533 -80.6036 172° South 197 227 8,000  Level Miami Center
09:40PM 27.9014 -80.5972 174° South 197 227 8,000  Level Miami Center
09:41PM 27.8472 -80.5931 176° South 197 227 8,000  Level Miami Center
09:42PM 27.7992 -80.5892 176° South 197 227 8,000  Level Miami Center
09:43PM 27.7472 -80.5828 174° South 197 227 8,000  Level Miami Center
09:44PM 27.6892 -80.5739 172° South 197 227 8,000  Level Miami Center
09:45PM 27.6350 -80.5650 172° South 197 227 8,000  Level Miami Center
09:46PM 27.5808 -80.5586 174° South 197 227 8,000  Level Miami Center
09:47PM 27.5331 -80.5525 174° South 197 227 8,000 -120 Level Miami Center
09:48PM 27.4789 -80.5483 176° South 197 227 7,800 -360 Descending Miami Center
09:49PM 27.4164 -80.5392 173° South 197 227 7,300 -540 Descending Miami Center
09:50PM 27.3603 -80.5306 172° South 197 227 6,800 -420 Descending Miami Center
09:51PM 27.3042 -80.5242 174° South 197 227 6,500 -360 Descending Miami Center
09:52PM 27.2542 -80.5200 176° South 197 227 6,100 -300 Descending Miami Center
09:53PM 27.2000 -80.5136 174° South 197 227 6,000 -60 Descending Miami Center
09:54PM 27.1439 -80.5050 172° South 197 227 6,000  Level Miami Center
09:55PM 27.0917 -80.4986 174° South 197 227 6,000 -60 Level Miami Center
09:56PM 27.0481 -80.4925 173° South 192 221 5,900 -240 Descending Miami Center
09:57PM 26.9939 -80.4864 174° South 192 221 5,600 -480 Descending Miami Center
10:02PM 26.6836 -80.4533 158° South 187 215 3,000 -420 Descending Miami Center
10:04PM 26.6275 -80.4469 174° South 185 213 2,900 -60 Descending Miami Center
10:05PM 26.5817 -80.4433 176° South 177 204 2,900  Level Miami Center
10:05PM 26.5339 -80.4325 169° South 173 199 2,900  Level Miami Center
10:06PM 26.5989 -80.5994 156° South  Level FlightAware Approximate
10:07PM 26.5517 -80.5765 158° South  Level FlightAware Approximate
10:07PM 26.4794 -80.4286 176° South 174 200 2,900  Level Miami Center
10:08PM 26.5041 -80.5548 158° South  Level FlightAware Approximate
10:08PM 26.4397 -80.4392 193° South 183 211 2,900  Level Miami Center
10:09PM 26.3786 -80.4558 194° South 179 206 2,600 -360 Descending Miami Center
10:10PM 26.3344 -80.4731 199° South 190 219 2,200 -420 Descending Miami Center
10:11PM 26.2817 -80.4897 196° South 191 220 1,900 -180 Descending Miami Center
10:12PM 26.2333 -80.5022 193° South 186 214 1,900  Level Miami Center
10:13PM 26.1808 -80.5192 196° South 178 205 1,900  Level Miami Center
10:14PM 26.1322 -80.5339 195° South 182 209 1,900  Level Miami Center
10:15PM 26.0819 -80.5486 195° South 182 209 1,900  Level Miami Center
10:16PM 26.0375 -80.5681 201° Southwest 181 208 1,900  Level Miami Center
10:17PM 25.9769 -80.5683 180° South 181 208 1,900  Level Miami Center
10:18PM 25.9308 -80.5692 181° South 180 207 1,900  Level Miami Center
10:19PM 25.8767 -80.5700 181° South 182 209 1,900  Level Miami Center
10:20PM 25.8264 -80.5706 181° South 181 208 1,900 -240 Level Miami Center
10:21PM 25.7639 -80.5711 180° South 187 215 1,400 -240 Descending Miami Center
10:22PM 25.7139 -80.5672 176° South 182 209 1,400  Level Miami Center
10:23PM 25.6683 -80.5475 159° South 169 194 1,400  Level Miami Center
10:24PM 25.6381 -80.5094 131° Southeast 134 154 1,500 -240 Climbing Miami Center
10:25PM 25.6408 -80.4797 84° East 123 142 1,000 -720 Descending Miami Center
10:27PM 25.6476 -80.4332 166° South  Level Estimated
10:34PM 25.6476 -80.4332 166° South  Level Estimated